VLG6401 LIPZ-LEBL
Flight info
| Callsign | VLG6401 |
|---|---|
| Flight time | 1h 48m |
| Altitude | 19000 |
| Route | CHI M859 ROVIG/N0443F350 DCT LUMAV DCT ABMOG DCT GOLAS DCT GEKBA DCT VAMTU DCT KOLON DCT GANGU DCT PADKO DCT DIVKO DCT NILDU DCT BISBA |
| Aircraft | A321/M-SDE3FGHIRWY/LB1 |
Departure
| Time | 2026-05-07 18:29 |
|---|---|
| Airport | Venice Marco Polo Airport (LIPZ) |
Arrival
| Time | 2026-05-07 20:17 |
|---|---|
| Airport | Josep Tarradellas Barcelona-El Prat Airport (LEBL) |
| Time | Latitude | Longitude | Altitude | Speed | Heading |
|---|---|---|---|---|---|
| 2026-05-07 17:53 | 45.50757 | 12.34009 | 14 ft | 0 kts | 221° |
| 2026-05-07 18:17 | 45.50757 | 12.34010 | 13 ft | 1 kts | 221° |
| 2026-05-07 18:18 | 45.50774 | 12.34027 | 13 ft | 4 kts | 200° |
| 2026-05-07 18:18 | 45.50795 | 12.34031 | 14 ft | 4 kts | 153° |
| 2026-05-07 18:18 | 45.50811 | 12.34012 | 13 ft | 1 kts | 128° |
| 2026-05-07 18:18 | 45.50811 | 12.34011 | 13 ft | 1 kts | 128° |
| 2026-05-07 18:22 | 45.50805 | 12.34022 | 16 ft | 4 kts | 129° |
| 2026-05-07 18:22 | 45.50785 | 12.34065 | 14 ft | 7 kts | 117° |
| 2026-05-07 18:23 | 45.50761 | 12.34138 | 13 ft | 10 kts | 116° |
| 2026-05-07 18:23 | 45.50710 | 12.34222 | 14 ft | 13 kts | 132° |
| 2026-05-07 18:23 | 45.50651 | 12.34314 | 15 ft | 12 kts | 134° |
| 2026-05-07 18:23 | 45.50563 | 12.34338 | 15 ft | 14 kts | 176° |
| 2026-05-07 18:24 | 45.50456 | 12.34345 | 18 ft | 16 kts | 177° |
| 2026-05-07 18:24 | 45.50344 | 12.34354 | 20 ft | 14 kts | 177° |
| 2026-05-07 18:24 | 45.50251 | 12.34298 | 18 ft | 18 kts | 224° |
| 2026-05-07 18:24 | 45.50151 | 12.34166 | 18 ft | 21 kts | 221° |
| 2026-05-07 18:25 | 45.50031 | 12.34014 | 14 ft | 24 kts | 222° |
| 2026-05-07 18:25 | 45.49909 | 12.33857 | 15 ft | 23 kts | 221° |
| 2026-05-07 18:25 | 45.49803 | 12.33720 | 18 ft | 16 kts | 223° |
| 2026-05-07 18:25 | 45.49708 | 12.33632 | 18 ft | 17 kts | 208° |
| 2026-05-07 18:26 | 45.49629 | 12.33544 | 18 ft | 11 kts | 222° |
| 2026-05-07 18:26 | 45.49564 | 12.33523 | 19 ft | 11 kts | 150° |
| 2026-05-07 18:26 | 45.49508 | 12.33606 | 18 ft | 12 kts | 132° |
| 2026-05-07 18:26 | 45.49451 | 12.33700 | 17 ft | 13 kts | 131° |
| 2026-05-07 18:27 | 45.49422 | 12.33776 | 16 ft | 9 kts | 77° |
| 2026-05-07 18:27 | 45.49449 | 12.33824 | 15 ft | 0 kts | 43° |
| 2026-05-07 18:28 | 45.49450 | 12.33825 | 15 ft | 0 kts | 42° |
| 2026-05-07 18:28 | 45.49633 | 12.34060 | 12 ft | 76 kts | 42° |
| 2026-05-07 18:28 | 45.50203 | 12.34792 | 17 ft | 142 kts | 42° |
| 2026-05-07 18:29 | 45.51050 | 12.35912 | 137 ft | 182 kts | 44° |
| 2026-05-07 18:29 | 45.51992 | 12.37144 | 720 ft | 191 kts | 45° |
| 2026-05-07 18:29 | 45.52963 | 12.38480 | 1431 ft | 194 kts | 48° |
| 2026-05-07 18:29 | 45.53588 | 12.40120 | 2109 ft | 190 kts | 81° |
| 2026-05-07 18:30 | 45.53551 | 12.41989 | 2838 ft | 189 kts | 103° |
| 2026-05-07 18:30 | 45.53295 | 12.43833 | 3483 ft | 193 kts | 101° |
| 2026-05-07 18:30 | 45.53079 | 12.45813 | 3858 ft | 211 kts | 99° |
| 2026-05-07 18:30 | 45.52869 | 12.47926 | 3998 ft | 218 kts | 98° |
| 2026-05-07 18:31 | 45.52659 | 12.50077 | 4009 ft | 219 kts | 98° |
| 2026-05-07 18:31 | 45.52285 | 12.52183 | 4188 ft | 230 kts | 121° |
| 2026-05-07 18:31 | 45.51106 | 12.53689 | 4781 ft | 233 kts | 160° |
| 2026-05-07 18:31 | 45.49452 | 12.53970 | 5157 ft | 252 kts | 187° |
| 2026-05-07 18:32 | 45.47650 | 12.53632 | 5661 ft | 268 kts | 191° |
| 2026-05-07 18:32 | 45.45798 | 12.53153 | 6436 ft | 272 kts | 193° |
| 2026-05-07 18:32 | 45.43930 | 12.52641 | 7210 ft | 275 kts | 193° |
| 2026-05-07 18:32 | 45.42037 | 12.52131 | 7998 ft | 278 kts | 193° |
| 2026-05-07 18:33 | 45.40122 | 12.51637 | 8797 ft | 281 kts | 192° |
| 2026-05-07 18:33 | 45.38178 | 12.51152 | 9587 ft | 285 kts | 192° |
| 2026-05-07 18:33 | 45.36238 | 12.50683 | 10320 ft | 288 kts | 192° |
| 2026-05-07 18:33 | 45.34257 | 12.50173 | 10992 ft | 293 kts | 196° |
| 2026-05-07 18:34 | 45.32282 | 12.49138 | 11215 ft | 313 kts | 210° |
| 2026-05-07 18:34 | 45.30344 | 12.47519 | 11387 ft | 334 kts | 213° |
| 2026-05-07 18:34 | 45.28319 | 12.45797 | 11926 ft | 342 kts | 213° |
| 2026-05-07 18:34 | 45.26255 | 12.44059 | 12610 ft | 347 kts | 212° |
| 2026-05-07 18:35 | 45.24165 | 12.42314 | 13307 ft | 350 kts | 212° |
| 2026-05-07 18:35 | 45.22058 | 12.40561 | 13987 ft | 354 kts | 212° |
| 2026-05-07 18:35 | 45.19950 | 12.38809 | 14610 ft | 357 kts | 212° |
| 2026-05-07 18:35 | 45.17803 | 12.37025 | 15251 ft | 360 kts | 212° |
| 2026-05-07 18:36 | 45.15627 | 12.35219 | 15887 ft | 364 kts | 212° |
| 2026-05-07 18:36 | 45.13437 | 12.33402 | 16523 ft | 367 kts | 213° |
| 2026-05-07 18:36 | 45.11225 | 12.31565 | 17176 ft | 370 kts | 213° |
| 2026-05-07 18:36 | 45.09038 | 12.29612 | 17800 ft | 372 kts | 219° |
| 2026-05-07 18:37 | 45.07137 | 12.27146 | 18407 ft | 372 kts | 231° |
| 2026-05-07 18:37 | 45.05609 | 12.24199 | 18844 ft | 372 kts | 241° |
| 2026-05-07 18:37 | 45.04371 | 12.20991 | 18982 ft | 371 kts | 244° |
| 2026-05-07 18:37 | 45.03169 | 12.17827 | 19005 ft | 370 kts | 243° |
| 2026-05-07 18:38 | 45.01952 | 12.14634 | 19008 ft | 369 kts | 243° |
| 2026-05-07 18:38 | 45.00729 | 12.11438 | 19009 ft | 369 kts | 243° |
| 2026-05-07 18:38 | 44.99507 | 12.08249 | 19010 ft | 369 kts | 243° |
| 2026-05-07 18:38 | 44.98283 | 12.05053 | 19013 ft | 369 kts | 243° |
| 2026-05-07 18:39 | 44.97061 | 12.01868 | 19013 ft | 370 kts | 243° |
| 2026-05-07 18:39 | 44.95832 | 11.98673 | 19014 ft | 370 kts | 243° |
| 2026-05-07 18:39 | 44.94620 | 11.95530 | 19018 ft | 370 kts | 243° |
| 2026-05-07 18:39 | 44.93388 | 11.92342 | 19018 ft | 370 kts | 243° |
| 2026-05-07 18:40 | 44.92156 | 11.89153 | 19018 ft | 370 kts | 243° |
| 2026-05-07 18:40 | 44.90917 | 11.85949 | 19412 ft | 374 kts | 243° |
| 2026-05-07 18:40 | 44.89665 | 11.82719 | 20065 ft | 376 kts | 243° |
| 2026-05-07 18:40 | 44.88408 | 11.79486 | 20710 ft | 377 kts | 243° |
| 2026-05-07 18:41 | 44.87145 | 11.76237 | 21300 ft | 379 kts | 243° |
| 2026-05-07 18:41 | 44.85876 | 11.72972 | 21904 ft | 381 kts | 243° |
| 2026-05-07 18:41 | 44.84616 | 11.69737 | 22457 ft | 382 kts | 243° |
| 2026-05-07 18:41 | 44.83333 | 11.66444 | 22992 ft | 384 kts | 243° |
| 2026-05-07 18:42 | 44.82071 | 11.63128 | 23520 ft | 385 kts | 246° |
| 2026-05-07 18:42 | 44.81141 | 11.59587 | 23962 ft | 386 kts | 256° |
| 2026-05-07 18:42 | 44.80559 | 11.55896 | 24390 ft | 387 kts | 258° |
| 2026-05-07 18:42 | 44.80002 | 11.52197 | 24830 ft | 388 kts | 258° |
| 2026-05-07 18:43 | 44.79440 | 11.48481 | 25269 ft | 389 kts | 258° |
| 2026-05-07 18:43 | 44.78872 | 11.44747 | 25702 ft | 390 kts | 258° |
| 2026-05-07 18:43 | 44.78307 | 11.41048 | 26123 ft | 391 kts | 258° |
| 2026-05-07 18:43 | 44.77733 | 11.37304 | 26550 ft | 393 kts | 258° |
| 2026-05-07 18:44 | 44.77154 | 11.33539 | 26971 ft | 394 kts | 258° |
| 2026-05-07 18:44 | 44.76569 | 11.29775 | 27389 ft | 395 kts | 258° |
| 2026-05-07 18:44 | 44.75978 | 11.25987 | 27806 ft | 396 kts | 258° |
| 2026-05-07 18:44 | 44.75385 | 11.22200 | 28201 ft | 398 kts | 258° |
| 2026-05-07 18:45 | 44.74793 | 11.18395 | 28596 ft | 399 kts | 258° |
| 2026-05-07 18:45 | 44.74199 | 11.14579 | 28981 ft | 400 kts | 258° |
| 2026-05-07 18:45 | 44.73602 | 11.10754 | 29357 ft | 402 kts | 258° |
| 2026-05-07 18:45 | 44.72998 | 11.06907 | 29748 ft | 403 kts | 258° |
| 2026-05-07 18:46 | 44.72398 | 11.03103 | 30131 ft | 404 kts | 258° |
| 2026-05-07 18:46 | 44.71787 | 10.99235 | 30454 ft | 406 kts | 258° |
| 2026-05-07 18:46 | 44.71167 | 10.95379 | 30868 ft | 404 kts | 257° |
| 2026-05-07 18:46 | 44.70497 | 10.91556 | 31307 ft | 402 kts | 256° |
| 2026-05-07 18:47 | 44.69791 | 10.87767 | 31752 ft | 400 kts | 255° |
| 2026-05-07 18:47 | 44.69068 | 10.83993 | 32191 ft | 398 kts | 255° |
| 2026-05-07 18:47 | 44.68347 | 10.80250 | 32625 ft | 397 kts | 255° |
| 2026-05-07 18:47 | 44.67639 | 10.76565 | 33045 ft | 395 kts | 255° |
| 2026-05-07 18:48 | 44.66930 | 10.72844 | 33462 ft | 393 kts | 256° |
| 2026-05-07 18:48 | 44.66231 | 10.69142 | 33879 ft | 391 kts | 256° |
| 2026-05-07 18:48 | 44.65541 | 10.65457 | 34248 ft | 390 kts | 256° |
| 2026-05-07 18:48 | 44.64850 | 10.61768 | 34550 ft | 389 kts | 256° |
| 2026-05-07 18:49 | 44.64162 | 10.58098 | 34840 ft | 389 kts | 255° |
| 2026-05-07 18:49 | 44.63472 | 10.54412 | 34992 ft | 390 kts | 255° |
| 2026-05-07 18:49 | 44.62783 | 10.50753 | 35021 ft | 386 kts | 255° |
| 2026-05-07 18:50 | 44.61407 | 10.43535 | 35017 ft | 384 kts | 255° |
| 2026-05-07 18:50 | 44.60025 | 10.36295 | 35014 ft | 384 kts | 255° |
| 2026-05-07 18:51 | 44.58640 | 10.29067 | 35014 ft | 384 kts | 255° |
| 2026-05-07 18:51 | 44.57250 | 10.21844 | 35016 ft | 383 kts | 255° |
| 2026-05-07 18:52 | 44.55865 | 10.14628 | 35022 ft | 383 kts | 255° |
| 2026-05-07 18:52 | 44.54479 | 10.07459 | 35030 ft | 383 kts | 255° |
| 2026-05-07 18:53 | 44.53075 | 10.00258 | 35029 ft | 383 kts | 255° |
| 2026-05-07 18:53 | 44.51661 | 9.93052 | 35023 ft | 383 kts | 255° |
| 2026-05-07 18:54 | 44.50252 | 9.85855 | 35022 ft | 383 kts | 255° |
| 2026-05-07 18:54 | 44.48854 | 9.78719 | 35018 ft | 383 kts | 255° |
| 2026-05-07 18:55 | 44.47438 | 9.71543 | 35020 ft | 382 kts | 255° |
| 2026-05-07 18:55 | 44.46019 | 9.64374 | 35021 ft | 382 kts | 255° |
| 2026-05-07 18:56 | 44.45070 | 9.57087 | 35022 ft | 381 kts | 262° |
| 2026-05-07 18:56 | 44.44397 | 9.49777 | 35020 ft | 381 kts | 261° |
| 2026-05-07 18:57 | 44.43705 | 9.42426 | 35024 ft | 381 kts | 261° |
| 2026-05-07 18:57 | 44.43011 | 9.35073 | 35025 ft | 381 kts | 261° |
| 2026-05-07 18:58 | 44.42317 | 9.27740 | 35023 ft | 380 kts | 261° |
| 2026-05-07 18:58 | 44.41621 | 9.20468 | 35021 ft | 380 kts | 261° |
| 2026-05-07 18:59 | 44.40918 | 9.13145 | 35018 ft | 379 kts | 261° |
| 2026-05-07 18:59 | 44.40218 | 9.05829 | 35021 ft | 380 kts | 261° |
| 2026-05-07 19:00 | 44.39502 | 8.98517 | 35019 ft | 380 kts | 261° |
| 2026-05-07 19:00 | 44.38779 | 8.91246 | 35018 ft | 380 kts | 261° |
| 2026-05-07 19:01 | 44.38054 | 8.83941 | 35019 ft | 379 kts | 261° |
| 2026-05-07 19:01 | 44.37330 | 8.76636 | 35023 ft | 380 kts | 261° |
| 2026-05-07 19:02 | 44.36595 | 8.69329 | 35021 ft | 380 kts | 261° |
| 2026-05-07 19:02 | 44.35868 | 8.62066 | 35020 ft | 380 kts | 261° |
| 2026-05-07 19:03 | 44.35129 | 8.54757 | 35020 ft | 379 kts | 261° |
| 2026-05-07 19:03 | 44.34382 | 8.47457 | 35019 ft | 379 kts | 261° |
| 2026-05-07 19:04 | 44.33632 | 8.40169 | 35018 ft | 379 kts | 261° |
| 2026-05-07 19:04 | 44.32884 | 8.32929 | 35019 ft | 379 kts | 260° |
| 2026-05-07 19:05 | 44.32127 | 8.25657 | 35010 ft | 379 kts | 260° |
| 2026-05-07 19:05 | 44.31364 | 8.18386 | 35011 ft | 379 kts | 260° |
| 2026-05-07 19:06 | 44.30595 | 8.11108 | 35010 ft | 378 kts | 260° |
| 2026-05-07 19:06 | 44.29436 | 8.00248 | 35009 ft | 379 kts | 260° |
| 2026-05-07 19:07 | 44.28657 | 7.92963 | 35009 ft | 380 kts | 260° |
| 2026-05-07 19:07 | 44.27874 | 7.85661 | 35009 ft | 380 kts | 260° |
| 2026-05-07 19:08 | 44.26359 | 7.78659 | 35007 ft | 380 kts | 243° |
| 2026-05-07 19:08 | 44.23052 | 7.72970 | 35005 ft | 386 kts | 225° |
| 2026-05-07 19:09 | 44.19015 | 7.68016 | 35000 ft | 387 kts | 225° |
| 2026-05-07 19:09 | 44.14981 | 7.63049 | 35003 ft | 386 kts | 227° |
| 2026-05-07 19:10 | 44.11421 | 7.57518 | 35009 ft | 384 kts | 232° |
| 2026-05-07 19:10 | 44.07920 | 7.51902 | 35012 ft | 384 kts | 232° |
| 2026-05-07 19:11 | 44.04442 | 7.46338 | 35014 ft | 383 kts | 232° |
| 2026-05-07 19:11 | 44.00946 | 7.40761 | 35012 ft | 383 kts | 231° |
| 2026-05-07 19:12 | 43.97437 | 7.35186 | 35011 ft | 383 kts | 231° |
| 2026-05-07 19:12 | 43.93948 | 7.29654 | 35005 ft | 383 kts | 231° |
| 2026-05-07 19:13 | 43.90434 | 7.24084 | 35002 ft | 383 kts | 231° |
| 2026-05-07 19:13 | 43.86921 | 7.18516 | 35002 ft | 385 kts | 231° |
| 2026-05-07 19:14 | 43.83387 | 7.12942 | 35004 ft | 385 kts | 231° |
| 2026-05-07 19:14 | 43.79880 | 7.07408 | 35011 ft | 385 kts | 231° |
| 2026-05-07 19:15 | 43.76343 | 7.01845 | 35010 ft | 385 kts | 230° |
| 2026-05-07 19:15 | 43.72867 | 6.96220 | 35011 ft | 384 kts | 236° |
| 2026-05-07 19:16 | 43.70522 | 6.89626 | 35012 ft | 384 kts | 247° |
| 2026-05-07 19:16 | 43.68521 | 6.82782 | 35012 ft | 384 kts | 246° |
| 2026-05-07 19:17 | 43.66513 | 6.76006 | 35008 ft | 384 kts | 246° |
| 2026-05-07 19:17 | 43.64481 | 6.69168 | 35008 ft | 385 kts | 246° |
| 2026-05-07 19:18 | 43.62455 | 6.62335 | 35010 ft | 385 kts | 246° |
| 2026-05-07 19:18 | 43.60425 | 6.55488 | 35002 ft | 385 kts | 246° |
| 2026-05-07 19:19 | 43.58393 | 6.48693 | 34994 ft | 386 kts | 246° |
| 2026-05-07 19:19 | 43.56344 | 6.41858 | 34993 ft | 386 kts | 246° |
| 2026-05-07 19:20 | 43.54298 | 6.35011 | 34994 ft | 387 kts | 246° |
| 2026-05-07 19:20 | 43.52251 | 6.28155 | 34989 ft | 387 kts | 246° |
| 2026-05-07 19:21 | 43.50187 | 6.21300 | 34993 ft | 387 kts | 246° |
| 2026-05-07 19:21 | 43.48120 | 6.14501 | 34994 ft | 388 kts | 246° |
| 2026-05-07 19:22 | 43.46038 | 6.07656 | 34996 ft | 388 kts | 246° |
| 2026-05-07 19:22 | 43.43961 | 6.00797 | 34998 ft | 388 kts | 246° |
| 2026-05-07 19:23 | 43.41884 | 5.93986 | 35005 ft | 389 kts | 246° |
| 2026-05-07 19:23 | 43.39792 | 5.87132 | 35003 ft | 389 kts | 246° |
| 2026-05-07 19:24 | 43.37693 | 5.80280 | 35004 ft | 389 kts | 246° |
| 2026-05-07 19:24 | 43.35590 | 5.73429 | 35007 ft | 389 kts | 245° |
| 2026-05-07 19:25 | 43.33477 | 5.66563 | 35009 ft | 390 kts | 245° |
| 2026-05-07 19:25 | 43.31382 | 5.59765 | 35007 ft | 390 kts | 245° |
| 2026-05-07 19:26 | 43.29266 | 5.52913 | 35003 ft | 389 kts | 245° |
| 2026-05-07 19:26 | 43.27146 | 5.46069 | 35004 ft | 389 kts | 245° |
| 2026-05-07 19:27 | 43.25028 | 5.39287 | 35003 ft | 390 kts | 245° |
| 2026-05-07 19:27 | 43.22891 | 5.32454 | 35002 ft | 390 kts | 245° |
| 2026-05-07 19:28 | 43.20761 | 5.25625 | 35001 ft | 390 kts | 245° |
| 2026-05-07 19:28 | 43.18621 | 5.18802 | 35006 ft | 390 kts | 245° |
| 2026-05-07 19:29 | 43.16493 | 5.12025 | 35005 ft | 390 kts | 245° |
| 2026-05-07 19:29 | 43.14352 | 5.05215 | 35008 ft | 390 kts | 245° |
| 2026-05-07 19:30 | 43.12199 | 4.98395 | 35010 ft | 390 kts | 245° |
| 2026-05-07 19:30 | 43.10041 | 4.91600 | 35011 ft | 390 kts | 245° |
| 2026-05-07 19:31 | 43.07894 | 4.84846 | 35013 ft | 390 kts | 245° |
| 2026-05-07 19:31 | 43.05468 | 4.78251 | 35007 ft | 388 kts | 234° |
| 2026-05-07 19:32 | 43.01720 | 4.72965 | 35007 ft | 389 kts | 223° |
| 2026-05-07 19:32 | 42.97667 | 4.68078 | 35007 ft | 389 kts | 223° |
| 2026-05-07 19:33 | 42.93644 | 4.63220 | 35008 ft | 389 kts | 223° |
| 2026-05-07 19:33 | 42.89588 | 4.58323 | 35009 ft | 389 kts | 223° |
| 2026-05-07 19:34 | 42.85531 | 4.53443 | 35006 ft | 389 kts | 223° |
| 2026-05-07 19:34 | 42.81467 | 4.48560 | 35004 ft | 389 kts | 222° |
| 2026-05-07 19:35 | 42.77432 | 4.43724 | 35008 ft | 389 kts | 222° |
| 2026-05-07 19:35 | 42.73362 | 4.38860 | 35009 ft | 389 kts | 222° |
| 2026-05-07 19:36 | 42.69295 | 4.33999 | 35011 ft | 389 kts | 222° |
| 2026-05-07 19:36 | 42.65229 | 4.29149 | 35007 ft | 389 kts | 222° |
| 2026-05-07 19:37 | 42.61181 | 4.24334 | 35007 ft | 389 kts | 222° |
| 2026-05-07 19:37 | 42.57099 | 4.19491 | 35007 ft | 390 kts | 222° |
| 2026-05-07 19:38 | 42.53020 | 4.14649 | 35010 ft | 390 kts | 222° |
| 2026-05-07 19:38 | 42.48935 | 4.09813 | 35009 ft | 390 kts | 222° |
| 2026-05-07 19:39 | 42.44871 | 4.05014 | 35009 ft | 390 kts | 222° |
| 2026-05-07 19:39 | 42.41443 | 4.00970 | 35011 ft | 390 kts | 222° |
| 2026-05-07 19:40 | 42.36683 | 3.95361 | 34897 ft | 391 kts | 221° |
| 2026-05-07 19:40 | 42.34611 | 3.92925 | 33985 ft | 400 kts | 221° |
| 2026-05-07 19:40 | 42.33216 | 3.91288 | 33386 ft | 403 kts | 221° |
| 2026-05-07 19:41 | 42.31110 | 3.88817 | 32973 ft | 398 kts | 221° |
| 2026-05-07 19:41 | 42.29022 | 3.86366 | 32204 ft | 400 kts | 221° |
| 2026-05-07 19:41 | 42.26263 | 3.83128 | 31476 ft | 391 kts | 220° |
| 2026-05-07 19:41 | 42.24224 | 3.80740 | 30956 ft | 387 kts | 220° |
| 2026-05-07 19:42 | 42.22194 | 3.78367 | 30443 ft | 385 kts | 220° |
| 2026-05-07 19:42 | 42.20175 | 3.76013 | 29901 ft | 384 kts | 220° |
| 2026-05-07 19:42 | 42.18837 | 3.74456 | 29524 ft | 382 kts | 220° |
| 2026-05-07 19:42 | 42.16839 | 3.72126 | 29026 ft | 378 kts | 220° |
| 2026-05-07 19:43 | 42.14857 | 3.69818 | 28527 ft | 375 kts | 220° |
| 2026-05-07 19:43 | 42.12892 | 3.67532 | 28024 ft | 372 kts | 220° |
| 2026-05-07 19:43 | 42.10329 | 3.64504 | 27373 ft | 369 kts | 224° |
| 2026-05-07 19:43 | 42.08681 | 3.61876 | 27029 ft | 368 kts | 234° |
| 2026-05-07 19:44 | 42.07777 | 3.59854 | 26924 ft | 374 kts | 240° |
| 2026-05-07 19:44 | 42.06698 | 3.56708 | 26408 ft | 378 kts | 243° |
| 2026-05-07 19:44 | 42.05627 | 3.53476 | 25899 ft | 376 kts | 244° |
| 2026-05-07 19:44 | 42.04572 | 3.50277 | 25524 ft | 373 kts | 244° |
| 2026-05-07 19:45 | 42.03522 | 3.47103 | 25139 ft | 370 kts | 244° |
| 2026-05-07 19:45 | 42.02476 | 3.43951 | 24777 ft | 368 kts | 244° |
| 2026-05-07 19:45 | 42.01430 | 3.40807 | 24398 ft | 367 kts | 244° |
| 2026-05-07 19:45 | 42.00391 | 3.37691 | 24039 ft | 365 kts | 244° |
| 2026-05-07 19:46 | 41.99357 | 3.34591 | 23669 ft | 363 kts | 244° |
| 2026-05-07 19:46 | 41.98335 | 3.31535 | 23271 ft | 362 kts | 244° |
| 2026-05-07 19:46 | 41.97303 | 3.28463 | 22902 ft | 361 kts | 244° |
| 2026-05-07 19:46 | 41.96274 | 3.25397 | 22539 ft | 360 kts | 244° |
| 2026-05-07 19:47 | 41.95250 | 3.22333 | 22180 ft | 359 kts | 245° |
| 2026-05-07 19:47 | 41.94459 | 3.19153 | 21814 ft | 359 kts | 255° |
| 2026-05-07 19:47 | 41.93903 | 3.15877 | 21447 ft | 359 kts | 256° |
| 2026-05-07 19:47 | 41.93346 | 3.12617 | 21086 ft | 358 kts | 256° |
| 2026-05-07 19:48 | 41.92782 | 3.09371 | 20725 ft | 357 kts | 256° |
| 2026-05-07 19:48 | 41.92212 | 3.06130 | 20366 ft | 356 kts | 256° |
| 2026-05-07 19:48 | 41.91653 | 3.02944 | 20011 ft | 355 kts | 256° |
| 2026-05-07 19:48 | 41.91087 | 2.99721 | 19655 ft | 354 kts | 256° |
| 2026-05-07 19:49 | 41.90520 | 2.96499 | 19291 ft | 353 kts | 256° |
| 2026-05-07 19:49 | 41.89957 | 2.93296 | 18934 ft | 353 kts | 256° |
| 2026-05-07 19:49 | 41.89393 | 2.90096 | 18578 ft | 352 kts | 257° |
| 2026-05-07 19:49 | 41.88830 | 2.86905 | 18210 ft | 352 kts | 257° |
| 2026-05-07 19:50 | 41.88266 | 2.83714 | 17822 ft | 350 kts | 257° |
| 2026-05-07 19:50 | 41.87707 | 2.80544 | 17473 ft | 349 kts | 257° |
| 2026-05-07 19:50 | 41.87153 | 2.77412 | 17123 ft | 348 kts | 257° |
| 2026-05-07 19:50 | 41.86594 | 2.74264 | 16771 ft | 347 kts | 257° |
| 2026-05-07 19:51 | 41.86032 | 2.71124 | 16423 ft | 345 kts | 256° |
| 2026-05-07 19:51 | 41.85473 | 2.68004 | 16072 ft | 344 kts | 257° |
| 2026-05-07 19:51 | 41.84915 | 2.64880 | 15722 ft | 343 kts | 256° |
| 2026-05-07 19:51 | 41.84361 | 2.61779 | 15373 ft | 342 kts | 256° |
| 2026-05-07 19:52 | 41.83810 | 2.58690 | 15034 ft | 340 kts | 256° |
| 2026-05-07 19:52 | 41.83265 | 2.55650 | 14693 ft | 339 kts | 256° |
| 2026-05-07 19:52 | 41.82715 | 2.52588 | 14350 ft | 337 kts | 256° |
| 2026-05-07 19:52 | 41.82164 | 2.49540 | 14005 ft | 337 kts | 256° |
| 2026-05-07 19:53 | 41.81613 | 2.46492 | 13647 ft | 336 kts | 256° |
| 2026-05-07 19:53 | 41.81064 | 2.43457 | 13300 ft | 335 kts | 256° |
| 2026-05-07 19:53 | 41.80518 | 2.40430 | 12961 ft | 333 kts | 256° |
| 2026-05-07 19:53 | 41.79976 | 2.37417 | 12627 ft | 332 kts | 256° |
| 2026-05-07 19:54 | 41.79435 | 2.34427 | 12298 ft | 330 kts | 256° |
| 2026-05-07 19:54 | 41.78899 | 2.31479 | 11960 ft | 329 kts | 256° |
| 2026-05-07 19:54 | 41.78360 | 2.28515 | 11630 ft | 327 kts | 256° |
| 2026-05-07 19:54 | 41.77782 | 2.25569 | 11293 ft | 326 kts | 250° |
| 2026-05-07 19:55 | 41.76756 | 2.22891 | 10966 ft | 323 kts | 234° |
| 2026-05-07 19:55 | 41.75235 | 2.20699 | 10642 ft | 321 kts | 218° |
| 2026-05-07 19:55 | 41.73347 | 2.19155 | 10331 ft | 314 kts | 202° |
| 2026-05-07 19:55 | 41.71342 | 2.18291 | 9976 ft | 295 kts | 195° |
| 2026-05-07 19:56 | 41.69392 | 2.17558 | 9537 ft | 287 kts | 195° |
| 2026-05-07 19:56 | 41.67465 | 2.16832 | 9403 ft | 287 kts | 195° |
| 2026-05-07 19:56 | 41.65567 | 2.16114 | 9270 ft | 287 kts | 195° |
| 2026-05-07 19:56 | 41.63646 | 2.15387 | 9142 ft | 287 kts | 195° |
| 2026-05-07 19:57 | 41.61730 | 2.14659 | 9007 ft | 287 kts | 195° |
| 2026-05-07 19:57 | 41.59812 | 2.13928 | 8873 ft | 286 kts | 195° |
| 2026-05-07 19:57 | 41.57903 | 2.13203 | 8748 ft | 285 kts | 195° |
| 2026-05-07 19:57 | 41.55990 | 2.12482 | 8610 ft | 285 kts | 195° |
| 2026-05-07 19:58 | 41.54093 | 2.11725 | 8485 ft | 285 kts | 201° |
| 2026-05-07 19:58 | 41.52358 | 2.10451 | 8352 ft | 285 kts | 217° |
| 2026-05-07 19:58 | 41.50969 | 2.08629 | 8228 ft | 285 kts | 232° |
| 2026-05-07 19:58 | 41.49899 | 2.06405 | 8105 ft | 285 kts | 238° |
| 2026-05-07 19:59 | 41.48870 | 2.04145 | 7979 ft | 285 kts | 238° |
| 2026-05-07 19:59 | 41.47839 | 2.01889 | 7851 ft | 285 kts | 238° |
| 2026-05-07 19:59 | 41.46807 | 1.99642 | 7722 ft | 284 kts | 238° |
| 2026-05-07 19:59 | 41.45772 | 1.97394 | 7604 ft | 284 kts | 238° |
| 2026-05-07 20:00 | 41.44742 | 1.95157 | 7482 ft | 283 kts | 238° |
| 2026-05-07 20:00 | 41.43714 | 1.92919 | 7351 ft | 283 kts | 238° |
| 2026-05-07 20:00 | 41.42686 | 1.90685 | 7232 ft | 283 kts | 238° |
| 2026-05-07 20:00 | 41.41675 | 1.88487 | 7104 ft | 282 kts | 238° |
| 2026-05-07 20:01 | 41.40654 | 1.86266 | 6987 ft | 282 kts | 238° |
| 2026-05-07 20:01 | 41.39627 | 1.84041 | 6869 ft | 282 kts | 238° |
| 2026-05-07 20:01 | 41.38603 | 1.81826 | 6742 ft | 280 kts | 238° |
| 2026-05-07 20:01 | 41.37582 | 1.79614 | 6620 ft | 280 kts | 238° |
| 2026-05-07 20:02 | 41.36567 | 1.77413 | 6497 ft | 277 kts | 238° |
| 2026-05-07 20:02 | 41.35581 | 1.75328 | 6363 ft | 255 kts | 232° |
| 2026-05-07 20:02 | 41.34285 | 1.73822 | 6240 ft | 245 kts | 205° |
| 2026-05-07 20:02 | 41.32671 | 1.73258 | 6110 ft | 240 kts | 179° |
| 2026-05-07 20:03 | 41.31058 | 1.73689 | 5984 ft | 238 kts | 155° |
| 2026-05-07 20:03 | 41.29577 | 1.74590 | 5858 ft | 238 kts | 154° |
| 2026-05-07 20:03 | 41.27996 | 1.75181 | 5725 ft | 238 kts | 179° |
| 2026-05-07 20:03 | 41.26406 | 1.74644 | 5598 ft | 240 kts | 211° |
| 2026-05-07 20:04 | 41.25253 | 1.73070 | 5466 ft | 241 kts | 242° |
| 2026-05-07 20:04 | 41.24546 | 1.71042 | 5354 ft | 242 kts | 245° |
| 2026-05-07 20:04 | 41.23855 | 1.69004 | 5224 ft | 242 kts | 245° |
| 2026-05-07 20:04 | 41.23162 | 1.66975 | 5100 ft | 241 kts | 244° |
| 2026-05-07 20:05 | 41.22476 | 1.64977 | 4984 ft | 241 kts | 244° |
| 2026-05-07 20:05 | 41.21781 | 1.62961 | 4856 ft | 240 kts | 244° |
| 2026-05-07 20:05 | 41.21088 | 1.60951 | 4729 ft | 239 kts | 244° |
| 2026-05-07 20:05 | 41.20396 | 1.58937 | 4599 ft | 238 kts | 244° |
| 2026-05-07 20:06 | 41.19709 | 1.56943 | 4471 ft | 238 kts | 244° |
| 2026-05-07 20:06 | 41.19020 | 1.54941 | 4346 ft | 238 kts | 244° |
| 2026-05-07 20:06 | 41.18334 | 1.52941 | 4213 ft | 238 kts | 244° |
| 2026-05-07 20:06 | 41.17652 | 1.50953 | 4096 ft | 236 kts | 243° |
| 2026-05-07 20:07 | 41.16711 | 1.49255 | 4007 ft | 224 kts | 218° |
| 2026-05-07 20:07 | 41.15373 | 1.48290 | 4015 ft | 223 kts | 193° |
| 2026-05-07 20:07 | 41.13847 | 1.48188 | 4015 ft | 220 kts | 167° |
| 2026-05-07 20:07 | 41.12453 | 1.48976 | 4014 ft | 219 kts | 142° |
| 2026-05-07 20:08 | 41.11458 | 1.50479 | 4011 ft | 219 kts | 117° |
| 2026-05-07 20:08 | 41.11037 | 1.52403 | 4016 ft | 219 kts | 92° |
| 2026-05-07 20:08 | 41.11278 | 1.54393 | 4016 ft | 221 kts | 69° |
| 2026-05-07 20:08 | 41.11878 | 1.56277 | 4018 ft | 222 kts | 68° |
| 2026-05-07 20:09 | 41.12505 | 1.58148 | 4016 ft | 222 kts | 66° |
| 2026-05-07 20:09 | 41.13154 | 1.60007 | 3894 ft | 222 kts | 66° |
| 2026-05-07 20:09 | 41.13796 | 1.61832 | 3772 ft | 221 kts | 66° |
| 2026-05-07 20:10 | 41.15046 | 1.65405 | 3541 ft | 204 kts | 66° |
| 2026-05-07 20:10 | 41.15638 | 1.67107 | 3417 ft | 202 kts | 66° |
| 2026-05-07 20:10 | 41.16226 | 1.68800 | 3291 ft | 202 kts | 66° |
| 2026-05-07 20:10 | 41.16812 | 1.70485 | 3169 ft | 201 kts | 66° |
| 2026-05-07 20:11 | 41.17397 | 1.72170 | 3077 ft | 201 kts | 66° |
| 2026-05-07 20:11 | 41.17981 | 1.73852 | 3021 ft | 200 kts | 66° |
| 2026-05-07 20:11 | 41.18563 | 1.75529 | 3025 ft | 201 kts | 66° |
| 2026-05-07 20:11 | 41.19140 | 1.77195 | 3028 ft | 201 kts | 66° |
| 2026-05-07 20:12 | 41.19726 | 1.78884 | 3033 ft | 201 kts | 66° |
| 2026-05-07 20:12 | 41.20309 | 1.80569 | 3030 ft | 201 kts | 66° |
| 2026-05-07 20:12 | 41.20893 | 1.82254 | 3030 ft | 201 kts | 66° |
| 2026-05-07 20:12 | 41.21476 | 1.83939 | 3032 ft | 201 kts | 66° |
| 2026-05-07 20:13 | 41.22060 | 1.85629 | 3033 ft | 201 kts | 66° |
| 2026-05-07 20:13 | 41.22646 | 1.87325 | 3033 ft | 201 kts | 66° |
| 2026-05-07 20:13 | 41.23229 | 1.89013 | 2935 ft | 201 kts | 66° |
| 2026-05-07 20:13 | 41.23803 | 1.90678 | 2717 ft | 200 kts | 66° |
| 2026-05-07 20:14 | 41.24379 | 1.92347 | 2462 ft | 198 kts | 66° |
| 2026-05-07 20:14 | 41.24953 | 1.94012 | 2198 ft | 198 kts | 66° |
| 2026-05-07 20:14 | 41.25521 | 1.95662 | 1942 ft | 193 kts | 66° |
| 2026-05-07 20:14 | 41.26063 | 1.97236 | 1689 ft | 181 kts | 66° |
| 2026-05-07 20:15 | 41.26562 | 1.98684 | 1469 ft | 162 kts | 66° |
| 2026-05-07 20:15 | 41.27010 | 1.99988 | 1235 ft | 149 kts | 66° |
| 2026-05-07 20:15 | 41.27433 | 2.01218 | 1031 ft | 144 kts | 66° |
| 2026-05-07 20:15 | 41.27841 | 2.02405 | 838 ft | 142 kts | 66° |
| 2026-05-07 20:16 | 41.28250 | 2.03596 | 645 ft | 141 kts | 66° |
| 2026-05-07 20:16 | 41.28655 | 2.04787 | 453 ft | 142 kts | 65° |
| 2026-05-07 20:16 | 41.29059 | 2.05975 | 267 ft | 141 kts | 65° |
| 2026-05-07 20:16 | 41.29469 | 2.07153 | 92 ft | 140 kts | 65° |
| 2026-05-07 20:17 | 41.29871 | 2.08300 | 24 ft | 126 kts | 64° |
| 2026-05-07 20:17 | 41.30192 | 2.09252 | 17 ft | 101 kts | 66° |
| 2026-05-07 20:17 | 41.30359 | 2.09724 | 18 ft | 21 kts | 64° |
| 2026-05-07 20:17 | 41.30305 | 2.09831 | 18 ft | 9 kts | 156° |
| 2026-05-07 20:18 | 41.30240 | 2.09870 | 17 ft | 11 kts | 155° |
| 2026-05-07 20:18 | 41.30160 | 2.09917 | 17 ft | 13 kts | 160° |
| 2026-05-07 20:18 | 41.30099 | 2.09846 | 16 ft | 14 kts | 245° |
| 2026-05-07 20:18 | 41.30058 | 2.09725 | 16 ft | 15 kts | 246° |
| 2026-05-07 20:19 | 41.30012 | 2.09589 | 16 ft | 17 kts | 245° |
| 2026-05-07 20:19 | 41.29961 | 2.09437 | 17 ft | 19 kts | 246° |
| 2026-05-07 20:19 | 41.29903 | 2.09269 | 16 ft | 21 kts | 245° |
| 2026-05-07 20:19 | 41.29842 | 2.09087 | 16 ft | 22 kts | 244° |
| 2026-05-07 20:20 | 41.29774 | 2.08901 | 21 ft | 22 kts | 243° |
| 2026-05-07 20:20 | 41.29705 | 2.08706 | 17 ft | 25 kts | 245° |
| 2026-05-07 20:20 | 41.29632 | 2.08492 | 17 ft | 26 kts | 245° |
| 2026-05-07 20:20 | 41.29579 | 2.08338 | 16 ft | 12 kts | 245° |
| 2026-05-07 20:21 | 41.29516 | 2.08288 | 16 ft | 11 kts | 165° |
| 2026-05-07 20:21 | 41.29445 | 2.08332 | 18 ft | 12 kts | 154° |
| 2026-05-07 20:21 | 41.29382 | 2.08340 | 19 ft | 9 kts | 216° |
| 2026-05-07 20:21 | 41.29349 | 2.08264 | 19 ft | 11 kts | 245° |
| 2026-05-07 20:22 | 41.29316 | 2.08167 | 20 ft | 13 kts | 245° |
| 2026-05-07 20:22 | 41.29280 | 2.08061 | 19 ft | 12 kts | 245° |
| 2026-05-07 20:22 | 41.29252 | 2.07989 | 19 ft | 6 kts | 222° |
| 2026-05-07 20:22 | 41.29214 | 2.07995 | 19 ft | 7 kts | 167° |
| 2026-05-07 20:23 | 41.29184 | 2.08011 | 19 ft | 4 kts | 154° |
| 2026-05-07 20:23 | 41.29177 | 2.08015 | 19 ft | 0 kts | 154° |